Terminal Aerodrome Forecast
Issued by NWS Charleston, WV

Current Version | Previous Version | Text Only | Print | Product List | Glossary Off
Versions: 1 2 3 4 5 6 7 8 9 10 11 12 13 14 15 16 17 18 19 20 21 22 23 24 25 26

000
FTUS41 KRLX 300556 CCA
TAFEKN
TAF COR
KEKN 300556Z 3006/3106 VRB03KT 5SM BR VCSH SCT045
     FM300700 VRB03KT 5SM BR BKN035
     FM301000 25004KT 1SM BR SCT001 BKN025
     FM301400 29004KT P6SM BKN020
     FM301900 29008KT P6SM BKN030
     FM302000 30008KT P6SM SCT040=

USA.gov is the U.S. government's official web portal to all federal, state and local government web resources and services.